createdAt,value
2022-08-03T00:00:24.352Z,28.36
2022-08-03T00:02:51.498Z,28.17
2022-08-03T00:05:18.316Z,28.39
2022-08-03T00:07:44.991Z,28.34
2022-08-03T00:10:13.588Z,28.11
2022-08-03T00:12:40.189Z,28.23
2022-08-03T00:15:11.240Z,28.23
2022-08-03T00:17:52.322Z,28.05
2022-08-03T00:20:19.955Z,27.82
2022-08-03T00:22:46.553Z,28.04
2022-08-03T00:25:13.263Z,28.07
2022-08-03T00:27:39.950Z,27.63
2022-08-03T00:30:07.430Z,28.04
2022-08-03T00:32:34.167Z,28.04
2022-08-03T00:35:00.760Z,28.05
2022-08-03T00:37:41.260Z,27.88
2022-08-03T00:40:13.346Z,27.96
2022-08-03T00:43:00.928Z,28.06
2022-08-03T00:45:32.915Z,28.02
2022-08-03T00:48:01.548Z,27.91
2022-08-03T00:50:30.414Z,27.81
2022-08-03T00:52:59.154Z,27.94
2022-08-03T00:55:26.436Z,27.11
2022-08-03T00:57:54.180Z,27.82
2022-08-03T01:00:24.341Z,27.61
2022-08-03T01:02:51.823Z,27.79
2022-08-03T01:05:19.284Z,27.74
2022-08-03T01:08:08.258Z,27.79
2022-08-03T01:10:49.999Z,27.76
2022-08-03T01:14:03.680Z,27.78
2022-08-03T01:16:35.807Z,27.68
2022-08-03T01:19:30.010Z,27.11
2022-08-03T01:22:23.966Z,26.46
2022-08-03T01:24:50.528Z,27.72
2022-08-03T01:27:29.873Z,27.53
2022-08-03T01:30:08.478Z,27.10
2022-08-03T01:32:53.304Z,27.27
2022-08-03T01:35:44.862Z,27.28
2022-08-03T01:38:27.288Z,27.75
2022-08-03T01:40:56.275Z,27.55
2022-08-03T01:44:28.303Z,27.31
2022-08-03T01:46:15.906Z,27.70
2022-08-03T01:48:44.575Z,27.60
2022-08-03T01:51:12.242Z,27.52
2022-08-03T01:53:42.926Z,27.43
2022-08-03T01:56:10.911Z,27.64
2022-08-03T01:58:39.945Z,27.57
2022-08-03T02:01:08.940Z,27.19
2022-08-03T02:03:59.536Z,27.38
2022-08-03T02:06:59.926Z,27.25
2022-08-03T02:09:15.515Z,27.21
2022-08-03T02:11:43.890Z,27.23
2022-08-03T02:14:11.253Z,27.21
2022-08-03T02:16:38.263Z,27.28
2022-08-03T02:19:07.503Z,27.20
2022-08-03T02:21:57.135Z,27.31
2022-08-03T02:24:24.490Z,26.95
2022-08-03T02:26:55.642Z,27.19
2022-08-03T02:29:40.070Z,27.19
2022-08-03T02:32:11.912Z,27.11
2022-08-03T02:34:42.387Z,27.12
2022-08-03T02:37:11.861Z,27.04
2022-08-03T02:39:40.926Z,27.14
2022-08-03T02:42:09.655Z,27.10
2022-08-03T02:44:40.489Z,26.60
2022-08-03T02:47:11.015Z,27.07
2022-08-03T02:49:51.504Z,27.07
2022-08-03T02:52:21.632Z,27.23
2022-08-03T02:54:51.329Z,27.13
2022-08-03T02:57:20.173Z,27.05
2022-08-03T02:59:48.057Z,27.07
2022-08-03T03:02:16.590Z,27.10
2022-08-03T03:05:50.683Z,27.15
2022-08-03T03:07:39.131Z,27.03
2022-08-03T03:10:24.606Z,27.03
2022-08-03T03:12:55.248Z,26.68
2022-08-03T03:15:23.560Z,26.67
2022-08-03T03:17:51.940Z,26.87
2022-08-03T03:20:26.711Z,26.73
2022-08-03T03:22:59.074Z,26.93
2022-08-03T03:25:26.240Z,26.95
2022-08-03T03:27:53.353Z,25.88
2022-08-03T03:30:19.946Z,26.59
2022-08-03T03:32:46.630Z,26.90
2022-08-03T03:35:14.140Z,26.88
2022-08-03T03:37:40.886Z,27.06
2022-08-03T03:40:09.136Z,26.67
2022-08-03T03:42:36.145Z,26.86
2022-08-03T03:45:07.803Z,26.83
2022-08-03T03:47:35.704Z,26.81
2022-08-03T03:50:04.836Z,26.88
2022-08-03T03:52:34.605Z,26.79
2022-08-03T03:55:01.842Z,26.67
2022-08-03T03:57:29.593Z,26.73
2022-08-03T03:59:56.759Z,26.48
2022-08-03T04:02:23.535Z,26.70
2022-08-03T04:05:08.795Z,26.67
2022-08-03T04:08:07.602Z,26.58
2022-08-03T04:10:54.674Z,26.21
2022-08-03T04:13:22.177Z,26.43
2022-08-03T04:15:50.661Z,26.51
2022-08-03T04:18:19.138Z,26.52
2022-08-03T04:20:48.904Z,26.53
2022-08-03T04:23:20.512Z,26.48
2022-08-03T04:25:51.642Z,26.40
2022-08-03T04:28:31.070Z,26.31
2022-08-03T04:31:01.084Z,26.43
2022-08-03T04:33:30.302Z,26.64
2022-08-03T04:36:02.757Z,26.53
2022-08-03T04:38:33.026Z,26.53
2022-08-03T04:41:01.563Z,26.33
2022-08-03T04:43:29.697Z,26.38
2022-08-03T04:45:57.057Z,26.58
2022-08-03T04:48:24.596Z,26.55
2022-08-03T04:50:51.950Z,26.36
2022-08-03T04:53:19.554Z,26.45
2022-08-03T04:55:46.636Z,26.31
2022-08-03T04:58:13.487Z,26.23
2022-08-03T05:00:40.190Z,26.17
2022-08-03T05:03:23.629Z,26.25
2022-08-03T05:06:01.670Z,26.14
2022-08-03T05:08:29.086Z,26.05
2022-08-03T05:10:59.304Z,26.28
2022-08-03T05:13:26.264Z,26.18
2022-08-03T05:15:53.055Z,26.09
2022-08-03T05:18:19.979Z,26.08
2022-08-03T05:20:46.906Z,25.76
2022-08-03T05:23:13.589Z,25.95
2022-08-03T05:25:40.229Z,26.31
2022-08-03T05:28:16.212Z,25.64
2022-08-03T05:30:42.896Z,26.07
2022-08-03T05:33:09.432Z,26.16
2022-08-03T05:36:01.124Z,26.19
2022-08-03T05:38:28.559Z,25.67
2022-08-03T05:41:22.724Z,26.34
2022-08-03T05:43:46.780Z,25.98
2022-08-03T05:46:13.850Z,26.20
2022-08-03T05:48:41.280Z,26.30
2022-08-03T05:51:11.719Z,26.25
2022-08-03T05:53:42.221Z,26.58
2022-08-03T05:56:14.104Z,25.36
2022-08-03T05:58:48.469Z,26.45
2022-08-03T06:01:19.111Z,26.85
2022-08-03T06:03:46.576Z,26.77
2022-08-03T06:06:13.154Z,27.11
2022-08-03T06:08:40.854Z,27.21
2022-08-03T06:11:07.990Z,27.25
2022-08-03T06:13:34.948Z,27.11
2022-08-03T06:16:02.075Z,27.20
2022-08-03T06:18:28.835Z,27.25
2022-08-03T06:20:55.501Z,27.41
2022-08-03T06:23:22.191Z,27.44
2022-08-03T06:25:48.982Z,27.47
2022-08-03T06:28:42.512Z,27.53
2022-08-03T06:31:03.701Z,27.67
2022-08-03T06:34:22.832Z,27.84
2022-08-03T06:36:20.435Z,27.84
2022-08-03T06:38:47.048Z,27.88
2022-08-03T06:41:13.619Z,27.81
2022-08-03T06:44:03.392Z,27.92
2022-08-03T06:46:27.470Z,28.07
2022-08-03T06:48:54.198Z,28.08
2022-08-03T06:51:20.779Z,28.13
2022-08-03T06:54:08.124Z,28.07
2022-08-03T06:56:34.910Z,27.84
2022-08-03T06:59:01.706Z,28.18
2022-08-03T07:01:28.321Z,28.23
2022-08-03T07:03:56.434Z,28.29
2022-08-03T07:06:23.035Z,28.14
2022-08-03T07:08:52.943Z,28.28
2022-08-03T07:11:21.083Z,28.44
2022-08-03T07:13:47.611Z,28.28
2022-08-03T07:16:14.467Z,28.21
2022-08-03T07:18:41.207Z,28.14
2022-08-03T07:21:09.397Z,28.50
2022-08-03T07:23:35.957Z,27.96
2022-08-03T07:26:02.718Z,28.55
2022-08-03T07:28:29.410Z,27.59
2022-08-03T07:30:56.115Z,28.68
2022-08-03T07:33:23.082Z,28.55
2022-08-03T07:35:49.748Z,28.68
2022-08-03T07:38:16.407Z,28.73
2022-08-03T07:40:46.178Z,28.77
2022-08-03T07:43:13.166Z,28.69
2022-08-03T07:45:39.931Z,28.97
2022-08-03T07:48:11.775Z,28.93
2022-08-03T07:50:39.026Z,28.76
2022-08-03T07:53:05.830Z,28.97
2022-08-03T07:55:32.576Z,28.88
2022-08-03T07:58:19.168Z,29.27
2022-08-03T08:00:49.018Z,29.22
2022-08-03T08:03:15.722Z,29.24
2022-08-03T08:05:42.575Z,29.17
2022-08-03T08:08:09.225Z,29.21
2022-08-03T08:10:36.015Z,29.04
2022-08-03T08:13:03.721Z,29.42
2022-08-03T08:15:31.654Z,28.73
2022-08-03T08:18:01.080Z,29.46
2022-08-03T08:20:32.896Z,29.55
2022-08-03T08:23:22.304Z,29.63
2022-08-03T08:25:52.497Z,29.65
2022-08-03T08:28:30.710Z,28.93
2022-08-03T08:30:59.755Z,29.67
2022-08-03T08:33:37.252Z,29.13
2022-08-03T08:36:14.760Z,29.92
2022-08-03T08:38:42.753Z,30.29
2022-08-03T08:41:11.549Z,30.11
2022-08-03T08:43:38.679Z,29.85
2022-08-03T08:46:08.562Z,30.23
2022-08-03T08:48:39.937Z,30.52
2022-08-03T08:51:08.601Z,30.45
2022-08-03T08:53:37.700Z,30.61
2022-08-03T08:56:05.504Z,30.65
2022-08-03T08:58:38.196Z,30.91
2022-08-03T09:01:05.688Z,30.63
2022-08-03T09:03:34.397Z,30.90
2022-08-03T09:06:02.295Z,30.84
2022-08-03T09:08:30.941Z,31.02
2022-08-03T09:10:58.064Z,30.85
2022-08-03T09:13:25.062Z,31.16
2022-08-03T09:16:14.670Z,31.31
2022-08-03T09:18:44.653Z,31.12
2022-08-03T09:21:31.254Z,31.43
2022-08-03T09:24:03.243Z,31.27
2022-08-03T09:26:32.043Z,31.58
2022-08-03T09:29:11.213Z,31.37
2022-08-03T09:31:46.299Z,31.70
2022-08-03T09:34:15.420Z,31.65
2022-08-03T09:36:48.960Z,31.86
2022-08-03T09:39:40.176Z,31.69
2022-08-03T09:42:17.327Z,32.03
2022-08-03T09:44:47.746Z,32.07
2022-08-03T09:47:17.216Z,32.01
2022-08-03T09:49:58.091Z,32.28
2022-08-03T09:52:50.222Z,31.49
2022-08-03T09:56:32.639Z,31.86
2022-08-03T09:58:11.012Z,32.24
2022-08-03T10:01:04.215Z,32.83
2022-08-03T10:03:35.134Z,33.03
2022-08-03T10:06:28.741Z,33.24
2022-08-03T10:09:07.001Z,33.46
2022-08-03T10:11:41.252Z,33.77
2022-08-03T10:14:11.358Z,33.67
2022-08-03T10:16:40.427Z,33.61
2022-08-03T10:19:08.643Z,33.41
2022-08-03T10:21:39.264Z,33.83
2022-08-03T10:24:08.491Z,33.85
2022-08-03T10:26:50.035Z,33.88
2022-08-03T10:29:28.219Z,34.41
2022-08-03T10:31:58.726Z,34.45
2022-08-03T10:34:35.523Z,34.73
2022-08-03T10:37:10.983Z,34.82
2022-08-03T10:39:37.961Z,34.56
2022-08-03T10:42:05.924Z,34.34
2022-08-03T10:44:42.538Z,35.14
2022-08-03T10:47:13.041Z,35.20
2022-08-03T10:49:40.233Z,35.09
2022-08-03T10:52:10.415Z,35.39
2022-08-03T10:55:03.489Z,35.57
2022-08-03T10:57:59.088Z,35.84
2022-08-03T11:00:30.096Z,35.91
2022-08-03T11:03:06.763Z,35.97
2022-08-03T11:05:36.337Z,36.06
2022-08-03T11:08:22.979Z,36.14
2022-08-03T11:10:51.320Z,36.15
2022-08-03T11:13:23.601Z,36.42
2022-08-03T11:15:53.581Z,36.44
2022-08-03T11:18:27.205Z,36.52
2022-08-03T11:20:56.286Z,36.30
2022-08-03T11:24:03.215Z,36.61
2022-08-03T11:26:33.082Z,36.71
2022-08-03T11:29:29.005Z,36.94
2022-08-03T11:31:55.711Z,37.15
2022-08-03T11:34:24.571Z,37.26
2022-08-03T11:37:21.847Z,37.50
2022-08-03T11:39:50.343Z,36.73
2022-08-03T11:42:23.254Z,37.45
2022-08-03T11:44:52.013Z,37.84
2022-08-03T11:47:23.179Z,37.99
2022-08-03T11:49:53.064Z,37.97
2022-08-03T11:52:27.189Z,38.15
2022-08-03T11:54:57.165Z,38.32
2022-08-03T11:59:00.815Z,38.31
2022-08-03T12:00:27.062Z,38.94
2022-08-03T12:02:59.152Z,38.47
2022-08-03T12:05:51.759Z,39.29
2022-08-03T12:08:28.123Z,39.42
2022-08-03T12:11:00.484Z,39.56
2022-08-03T12:14:44.635Z,39.48
2022-08-03T12:16:26.061Z,39.68
2022-08-03T12:19:01.622Z,39.86
2022-08-03T12:21:29.312Z,39.86
2022-08-03T12:24:01.373Z,40.04
2022-08-03T12:26:30.117Z,40.23
2022-08-03T12:28:57.424Z,40.17
2022-08-03T12:31:24.898Z,40.24
2022-08-03T12:33:58.935Z,39.87
2022-08-03T12:36:26.798Z,40.63
2022-08-03T12:38:59.077Z,40.64
2022-08-03T12:41:34.373Z,40.67
2022-08-03T12:44:03.587Z,40.93
2022-08-03T12:46:46.911Z,40.94
2022-08-03T12:49:17.919Z,41.37
2022-08-03T12:52:07.594Z,41.06
2022-08-03T12:54:36.052Z,41.32
2022-08-03T12:57:16.215Z,41.55
2022-08-03T12:59:53.127Z,41.98
2022-08-03T13:02:24.264Z,42.06
2022-08-03T13:04:53.309Z,42.19
2022-08-03T13:07:20.884Z,41.74
2022-08-03T13:09:58.653Z,42.52
2022-08-03T13:12:27.970Z,42.30
2022-08-03T13:15:01.010Z,42.81
2022-08-03T13:17:28.383Z,42.72
2022-08-03T13:19:55.097Z,42.97
2022-08-03T13:22:27.352Z,43.14
2022-08-03T13:24:56.651Z,42.74
2022-08-03T13:28:03.422Z,43.15
2022-08-03T13:30:21.070Z,43.13
2022-08-03T13:32:58.607Z,43.09
2022-08-03T13:35:25.595Z,43.14
2022-08-03T13:37:52.276Z,43.10
2022-08-03T13:40:18.995Z,43.13
2022-08-03T13:42:50.410Z,43.29
2022-08-03T13:45:17.132Z,43.39
2022-08-03T13:47:43.701Z,43.19
2022-08-03T13:50:10.330Z,43.22
2022-08-03T13:52:37.060Z,42.27
2022-08-03T13:55:07.441Z,41.70
2022-08-03T13:58:04.142Z,40.99
2022-08-03T14:00:28.929Z,40.69
2022-08-03T14:03:04.016Z,40.48
2022-08-03T14:05:34.480Z,39.91
2022-08-03T14:08:03.962Z,39.82
2022-08-03T14:10:32.786Z,39.66
2022-08-03T14:13:00.496Z,39.22
2022-08-03T14:15:28.563Z,39.03
2022-08-03T14:17:55.884Z,38.71
2022-08-03T14:20:38.034Z,38.58
2022-08-03T14:23:07.369Z,38.58
2022-08-03T14:25:43.134Z,38.40
2022-08-03T14:28:21.127Z,38.27
2022-08-03T14:30:48.718Z,37.98
2022-08-03T14:33:15.600Z,37.97
2022-08-03T14:35:42.319Z,37.86
2022-08-03T14:38:08.900Z,37.83
2022-08-03T14:40:35.545Z,37.89
2022-08-03T14:43:02.616Z,37.57
2022-08-03T14:45:29.352Z,37.54
2022-08-03T14:50:34.054Z,37.60
2022-08-03T14:50:48.379Z,37.68
2022-08-03T14:53:20.385Z,37.41
2022-08-03T14:55:49.752Z,37.39
2022-08-03T14:58:20.027Z,37.36
2022-08-03T15:00:49.455Z,37.25
2022-08-03T15:03:17.121Z,37.18
2022-08-03T15:05:44.570Z,36.96
2022-08-03T15:08:11.404Z,37.19
2022-08-03T15:10:43.950Z,37.11
2022-08-03T15:13:15.212Z,36.73
2022-08-03T15:15:41.982Z,37.01
2022-08-03T15:18:08.973Z,36.81
2022-08-03T15:20:44.515Z,36.66
2022-08-03T15:23:12.920Z,36.95
2022-08-03T15:26:28.359Z,36.96
2022-08-03T15:28:26.220Z,36.84
2022-08-03T15:30:53.213Z,36.74
2022-08-03T15:33:20.261Z,36.72
2022-08-03T15:35:47.739Z,36.73
2022-08-03T15:38:14.858Z,36.52
2022-08-03T15:40:41.821Z,36.18
2022-08-03T15:43:08.774Z,36.50
2022-08-03T15:45:36.607Z,36.57
2022-08-03T15:48:07.161Z,36.53
2022-08-03T15:50:33.885Z,36.23
2022-08-03T15:53:00.555Z,36.42
2022-08-03T15:55:27.414Z,36.43
2022-08-03T15:59:10.430Z,35.80
2022-08-03T16:00:42.747Z,36.59
2022-08-03T16:03:10.139Z,35.58
2022-08-03T16:05:36.985Z,35.49
2022-08-03T16:08:05.616Z,36.60
2022-08-03T16:10:33.774Z,36.49
2022-08-03T16:13:00.787Z,35.98
2022-08-03T16:15:27.836Z,36.17
2022-08-03T16:17:54.929Z,36.44
2022-08-03T16:20:31.668Z,35.87
2022-08-03T16:23:10.333Z,35.59
2022-08-03T16:25:39.402Z,36.32
2022-08-03T16:28:13.117Z,36.30
2022-08-03T16:30:44.353Z,36.35
2022-08-03T16:33:17.062Z,36.36
2022-08-03T16:35:49.630Z,36.27
2022-08-03T16:38:19.039Z,35.86
2022-08-03T16:40:51.577Z,35.89
2022-08-03T16:43:19.712Z,35.90
2022-08-03T16:45:47.826Z,35.97
2022-08-03T16:48:15.788Z,35.80
2022-08-03T16:50:42.532Z,34.59
2022-08-03T16:53:16.766Z,35.38
2022-08-03T16:55:51.937Z,34.56
2022-08-03T16:58:34.233Z,35.44
2022-08-03T17:03:42.645Z,35.65
2022-08-03T17:06:33.884Z,35.46
2022-08-03T17:09:03.244Z,35.17
2022-08-03T17:11:32.958Z,35.17
2022-08-03T17:14:00.420Z,34.35
2022-08-03T17:16:27.518Z,35.03
2022-08-03T17:19:02.011Z,34.69
2022-08-03T17:21:33.203Z,35.23
2022-08-03T17:24:34.411Z,34.59
2022-08-03T17:27:08.583Z,34.89
2022-08-03T17:29:45.270Z,34.65
2022-08-03T17:32:18.092Z,35.04
2022-08-03T17:34:48.953Z,34.65
2022-08-03T17:37:50.692Z,34.21
2022-08-03T17:40:03.969Z,34.59
2022-08-03T17:42:32.940Z,34.05
2022-08-03T17:45:01.593Z,34.65
2022-08-03T17:47:41.864Z,34.63
2022-08-03T17:50:23.508Z,34.69
2022-08-03T17:53:01.268Z,34.71
2022-08-03T17:55:56.041Z,34.33
2022-08-03T17:58:36.751Z,34.47
2022-08-03T18:01:59.761Z,34.57
2022-08-03T18:04:12.691Z,34.61
2022-08-03T18:06:56.315Z,34.67
2022-08-03T18:10:05.183Z,34.52
2022-08-03T18:12:18.992Z,33.01
2022-08-03T18:14:57.886Z,34.41
2022-08-03T18:17:55.464Z,33.97
2022-08-03T18:20:32.890Z,34.15
2022-08-03T18:23:04.746Z,34.34
2022-08-03T18:25:42.992Z,34.21
2022-08-03T18:28:14.628Z,34.07
2022-08-03T18:30:54.063Z,34.12
2022-08-03T18:34:16.411Z,34.15
2022-08-03T18:39:01.731Z,34.07
2022-08-03T18:41:32.246Z,33.93
2022-08-03T18:44:07.181Z,33.73
2022-08-03T18:47:07.373Z,33.02
2022-08-03T18:50:12.295Z,33.79
2022-08-03T18:53:19.589Z,33.62
2022-08-03T18:56:02.260Z,33.44
2022-08-03T18:59:02.524Z,33.49
2022-08-03T19:02:00.851Z,33.33
2022-08-03T19:04:30.472Z,33.37
2022-08-03T19:07:09.287Z,33.25
2022-08-03T19:09:49.466Z,33.15
2022-08-03T19:12:30.637Z,33.25
2022-08-03T19:15:13.560Z,32.99
2022-08-03T19:17:50.087Z,32.80
2022-08-03T19:20:21.994Z,32.94
2022-08-03T19:22:51.155Z,32.99
2022-08-03T19:25:18.262Z,32.91
2022-08-03T19:27:47.207Z,32.90
2022-08-03T19:30:35.635Z,32.83
2022-08-03T19:33:07.056Z,32.75
2022-08-03T19:35:52.036Z,32.54
2022-08-03T19:38:28.335Z,32.61
2022-08-03T19:41:02.632Z,31.98
2022-08-03T19:43:52.604Z,32.44
2022-08-03T19:46:21.822Z,32.59
2022-08-03T19:49:14.953Z,32.55
2022-08-03T19:52:01.194Z,32.48
2022-08-03T19:54:39.556Z,31.65
2022-08-03T19:57:18.600Z,32.05
2022-08-03T19:59:49.908Z,32.39
2022-08-03T20:02:27.289Z,31.19
2022-08-03T20:05:00.014Z,32.11
2022-08-03T20:07:47.643Z,31.52
2022-08-03T20:10:16.561Z,32.27
2022-08-03T20:12:44.918Z,31.75
2022-08-03T20:15:12.233Z,32.17
2022-08-03T20:17:56.837Z,32.11
2022-08-03T20:20:32.697Z,32.16
2022-08-03T20:23:03.916Z,31.35
2022-08-03T20:25:48.686Z,31.97
2022-08-03T20:28:50.335Z,32.10
2022-08-03T20:31:18.952Z,31.19
2022-08-03T20:33:49.098Z,32.01
2022-08-03T20:36:17.892Z,31.77
2022-08-03T20:38:47.260Z,31.86
2022-08-03T20:41:15.806Z,31.84
2022-08-03T20:43:42.421Z,31.64
2022-08-03T20:46:32.005Z,31.81
2022-08-03T20:48:59.009Z,31.93
2022-08-03T20:51:49.162Z,31.77
2022-08-03T20:54:28.948Z,31.76
2022-08-03T20:56:58.366Z,31.63
2022-08-03T20:59:29.893Z,31.60
2022-08-03T21:02:00.251Z,31.29
2022-08-03T21:04:27.021Z,31.42
2022-08-03T21:07:04.684Z,31.34
2022-08-03T21:09:57.110Z,31.64
2022-08-03T21:12:34.068Z,31.40
2022-08-03T21:13:05.735Z,34.17
2022-08-03T21:15:05.787Z,31.37
2022-08-03T21:17:41.993Z,31.30
2022-08-03T21:20:11.804Z,31.29
2022-08-03T21:22:39.513Z,31.34
2022-08-03T21:25:09.363Z,31.33
2022-08-03T21:27:36.734Z,31.14
2022-08-03T21:30:07.947Z,31.25
2022-08-03T21:32:35.096Z,31.32
2022-08-03T21:35:02.245Z,31.24
2022-08-03T21:37:29.160Z,30.75
2022-08-03T21:39:56.514Z,30.91
2022-08-03T21:42:24.497Z,31.01
2022-08-03T21:44:52.180Z,31.17
2022-08-03T21:47:22.065Z,30.95
2022-08-03T21:50:08.442Z,30.87
2022-08-03T21:52:44.884Z,30.86
2022-08-03T21:55:18.290Z,30.86
2022-08-03T21:57:52.886Z,30.51
2022-08-03T22:00:21.936Z,30.60
2022-08-03T22:02:56.075Z,30.58
2022-08-03T22:05:43.036Z,30.60
2022-08-03T22:08:14.247Z,30.52
2022-08-03T22:10:44.296Z,30.51
2022-08-03T22:13:12.934Z,30.29
2022-08-03T22:15:39.699Z,30.39
2022-08-03T22:18:06.592Z,30.17
2022-08-03T22:20:33.395Z,29.88
2022-08-03T22:23:06.799Z,30.10
2022-08-03T22:25:35.869Z,29.69
2022-08-03T22:28:07.977Z,29.86
2022-08-03T22:30:34.994Z,29.64
2022-08-03T22:33:04.197Z,29.77
2022-08-03T22:35:32.402Z,29.75
2022-08-03T22:38:13.549Z,29.81
2022-08-03T22:40:40.475Z,29.26
2022-08-03T22:43:07.763Z,29.59
2022-08-03T22:45:45.832Z,29.78
2022-08-03T22:48:22.939Z,29.49
2022-08-03T22:50:50.227Z,28.89
2022-08-03T22:53:18.912Z,29.37
2022-08-03T22:55:47.637Z,28.75
2022-08-03T22:58:17.530Z,28.79
2022-08-03T23:00:56.385Z,29.19
2022-08-03T23:03:59.712Z,29.32
2022-08-03T23:06:20.195Z,28.83
2022-08-03T23:08:47.697Z,29.33
2022-08-03T23:11:17.601Z,29.43
2022-08-03T23:13:49.184Z,29.42
2022-08-03T23:16:29.675Z,29.13
2022-08-03T23:18:58.765Z,29.29
2022-08-03T23:21:59.857Z,29.00
2022-08-03T23:24:26.001Z,29.14
2022-08-03T23:26:57.749Z,29.06
2022-08-03T23:29:26.248Z,28.82
2022-08-03T23:31:54.728Z,28.97
2022-08-03T23:34:40.546Z,28.38
2022-08-03T23:37:07.193Z,29.16
2022-08-03T23:39:35.147Z,29.03
2022-08-03T23:42:03.077Z,28.88
2022-08-03T23:44:31.383Z,28.99
2022-08-03T23:46:58.104Z,28.94
2022-08-03T23:49:24.863Z,28.88
2022-08-03T23:51:55.857Z,28.79
2022-08-03T23:54:26.969Z,28.74
2022-08-03T23:57:06.312Z,28.74
2022-08-03T23:59:39.115Z,28.75
